Time;durP1;ratioP1;P1;durP2;ratioP2;P2;SDS_P1;SDS_P2;PMS_P1;PMS_P2;Temp;Humidity;BMP_temperature;BMP_pressure;BME280_temperature;BME280_humidity;BME280_pressure;Samples;Min_cycle;Max_cycle;Signal;HPM_P1;HPM_P2
2022/03/24 00:01:41;;;;;;;;;;;9.30;99.90;;;;;;5095733;28;19981;-86
2022/03/24 00:04:08;;;;;;;;;;;9.60;99.90;;;;;;5094504;28;19928;-89
2022/03/24 00:06:35;;;;;;;;;;;8.90;99.90;;;;;;5094671;28;19961;-88
2022/03/24 00:09:05;;;;;;;;;;;8.90;99.90;;;;;;5094472;28;19928;-87
2022/03/24 00:11:32;;;;;;;;;;;8.80;99.90;;;;;;5095175;28;19930;-87
2022/03/24 00:13:59;;;;;;;;;;;9.10;99.90;;;;;;5094466;28;19924;-88
2022/03/24 00:16:26;;;;;;;;;;;9.10;99.90;;;;;;5094638;28;19946;-89
2022/03/24 00:18:53;;;;;;;;;;;9.10;99.90;;;;;;5094445;28;20021;-88
2022/03/24 00:21:20;;;;;;;;;;;9.60;99.90;;;;;;5113431;28;19924;-88
2022/03/24 00:23:47;;;;;;;;;;;9.50;99.90;;;;;;5112762;28;19924;-89
2022/03/24 00:26:15;;;;;;;;;;;8.80;99.90;;;;;;5114429;28;19997;-88
2022/03/24 00:28:44;;;;;;;;;;;8.90;99.90;;;;;;5114532;28;19927;-87
2022/03/24 00:31:10;;;;;;;;;;;7.70;99.90;;;;;;5111413;27;19932;-88
2022/03/24 00:33:38;;;;;;;;;;;8.60;99.90;;;;;;5093654;28;19924;-88
2022/03/24 00:36:06;;;;;;;;;;;8.50;99.90;;;;;;5092608;28;19924;-88
2022/03/24 00:38:34;;;;;;;;;;;8.50;99.90;;;;;;5093398;28;19931;-88
2022/03/24 00:41:01;;;;;;;;;;;8.50;99.90;;;;;;5093807;28;20386;-89
2022/03/24 00:43:29;;;;;;;;;;;8.40;99.90;;;;;;5113787;28;20015;-87
2022/03/24 00:45:57;;;;;;;;;;;8.70;99.90;;;;;;5114360;28;19946;-88
2022/03/24 00:48:24;;;;;;;;;;;7.10;99.90;;;;;;5114109;28;19924;-88
2022/03/24 00:50:51;;;;;;;;;;;8.40;99.90;;;;;;5114238;28;19923;-88
2022/03/24 00:53:19;;;;;;;;;;;8.40;99.90;;;;;;5110864;28;20005;-87
2022/03/24 00:55:46;;;;;;;;;;;8.30;99.90;;;;;;5093961;28;20013;-88
2022/03/24 00:58:13;;;;;;;;;;;8.30;99.90;;;;;;5094022;28;19924;-88
2022/03/24 01:00:42;;;;;;;;;;;8.50;99.90;;;;;;5093674;28;20331;-88
2022/03/24 01:03:12;;;;;;;;;;;8.20;99.90;;;;;;5093869;28;19971;-89
2022/03/24 01:05:39;;;;;;;;;;;8.20;99.90;;;;;;5100817;28;19924;-88
2022/03/24 01:08:08;;;;;;;;;;;8.10;99.90;;;;;;5114306;28;19946;-88
2022/03/24 01:10:35;;;;;;;;;;;8.00;99.90;;;;;;5112358;28;20574;-89
2022/03/24 01:13:03;;;;;;;;;;;8.30;99.90;;;;;;5114261;28;19928;-87
2022/03/24 01:15:30;;;;;;;;;;;8.50;99.90;;;;;;5113939;28;20331;-88
2022/03/24 01:17:59;;;;;;;;;;;8.00;99.90;;;;;;5113876;28;20377;-88
2022/03/24 01:20:27;;;;;;;;;;;8.00;99.90;;;;;;5113538;28;19924;-88
2022/03/24 01:22:54;;;;;;;;;;;8.20;99.90;;;;;;5114223;28;19924;-87
2022/03/24 01:25:23;;;;;;;;;;;7.80;99.90;;;;;;5113780;28;19931;-87
2022/03/24 01:27:51;;;;;;;;;;;7.80;99.90;;;;;;5113673;28;20006;-89
2022/03/24 01:30:18;;;;;;;;;;;7.50;99.90;;;;;;5114284;28;19924;-88
2022/03/24 01:32:45;;;;;;;;;;;7.80;99.90;;;;;;5112511;28;19999;-87
2022/03/24 01:35:15;;;;;;;;;;;7.70;99.90;;;;;;5108685;28;19946;-87
2022/03/24 01:37:42;;;;;;;;;;;7.60;99.90;;;;;;5111083;28;19920;-86
2022/03/24 01:40:12;;;;;;;;;;;7.40;99.90;;;;;;5107928;28;19928;-86
2022/03/24 01:42:40;;;;;;;;;;;7.60;99.90;;;;;;5095367;28;19967;-88
2022/03/24 01:45:08;;;;;;;;;;;7.70;99.90;;;;;;5094149;28;19924;-88
2022/03/24 01:47:37;;;;;;;;;;;8.20;99.90;;;;;;5096766;28;19924;-89
2022/03/24 01:50:05;;;;;;;;;;;7.60;99.90;;;;;;5096854;28;19930;-88
2022/03/24 01:52:34;;;;;;;;;;;7.00;99.90;;;;;;5096976;28;19927;-89
2022/03/24 01:55:01;;;;;;;;;;;7.70;99.90;;;;;;5097013;28;19928;-88
2022/03/24 01:57:29;;;;;;;;;;;7.70;99.90;;;;;;5110474;28;19931;-88
2022/03/24 01:59:57;;;;;;;;;;;5.20;99.90;;;;;;5117369;28;19930;-88
2022/03/24 02:02:24;;;;;;;;;;;7.60;99.90;;;;;;5117337;28;19924;-88
2022/03/24 02:04:51;;;;;;;;;;;7.60;99.90;;;;;;5117311;28;20293;-89
2022/03/24 02:07:18;;;;;;;;;;;7.60;99.90;;;;;;5117140;28;20010;-88
2022/03/24 02:09:46;;;;;;;;;;;8.10;99.90;;;;;;5116694;28;19927;-88
2022/03/24 02:12:14;;;;;;;;;;;7.70;99.90;;;;;;5117115;28;19985;-89
2022/03/24 02:14:41;;;;;;;;;;;8.00;99.90;;;;;;5117174;28;19932;-88
2022/03/24 02:17:08;;;;;;;;;;;7.60;99.90;;;;;;5116860;28;20362;-89
2022/03/24 02:19:36;;;;;;;;;;;7.60;99.90;;;;;;5105956;28;19924;-89
2022/03/24 02:22:10;;;;;;;;;;;7.60;99.90;;;;;;5096461;28;19928;-88
2022/03/24 02:24:37;;;;;;;;;;;8.20;99.90;;;;;;5096360;28;19931;-89
2022/03/24 02:27:04;;;;;;;;;;;10.60;99.90;;;;;;5096102;28;19971;-88
2022/03/24 02:29:31;;;;;;;;;;;7.60;99.90;;;;;;5105801;28;19924;-89
2022/03/24 02:31:58;;;;;;;;;;;7.50;99.90;;;;;;5116472;28;19928;-89
2022/03/24 02:34:47;;;;;;;;;;;7.40;99.90;;;;;;5116544;28;19923;-88
2022/03/24 02:37:19;;;;;;;;;;;7.50;99.90;;;;;;5108175;28;20285;-89
2022/03/24 02:39:47;;;;;;;;;;;6.50;99.90;;;;;;5095894;28;19976;-89
2022/03/24 02:42:15;;;;;;;;;;;7.40;99.90;;;;;;5095717;28;19924;-88
2022/03/24 02:44:43;;;;;;;;;;;7.40;99.90;;;;;;5095762;28;20019;-88
2022/03/24 02:47:10;;;;;;;;;;;6.90;99.90;;;;;;5102867;28;20026;-88
2022/03/24 02:49:38;;;;;;;;;;;7.30;99.90;;;;;;5116156;28;19924;-88
2022/03/24 02:52:07;;;;;;;;;;;7.30;99.90;;;;;;5115640;28;20382;-87
2022/03/24 02:54:35;;;;;;;;;;;7.30;99.90;;;;;;5115603;28;20366;-88
2022/03/24 02:57:03;;;;;;;;;;;7.30;99.90;;;;;;5115440;28;19964;-87
2022/03/24 02:59:30;;;;;;;;;;;7.30;99.90;;;;;;5104634;28;19983;-88
2022/03/24 03:01:59;;;;;;;;;;;7.30;99.90;;;;;;5095624;28;20427;-89
2022/03/24 03:04:26;;;;;;;;;;;6.30;99.90;;;;;;5095721;28;20289;-88
2022/03/24 03:06:53;;;;;;;;;;;7.20;99.90;;;;;;5095855;28;19966;-87
2022/03/24 03:09:20;;;;;;;;;;;7.20;99.90;;;;;;5095374;28;19928;-89
2022/03/24 03:11:49;;;;;;;;;;;7.20;99.90;;;;;;5109911;28;19969;-88
2022/03/24 03:14:17;;;;;;;;;;;7.40;99.90;;;;;;5116059;28;19992;-89
2022/03/24 03:16:44;;;;;;;;;;;7.20;99.90;;;;;;5116144;28;20361;-88
2022/03/24 03:19:11;;;;;;;;;;;7.40;99.90;;;;;;5115651;28;19924;-88
2022/03/24 03:21:39;;;;;;;;;;;6.70;99.90;;;;;;5115665;28;19930;-88
2022/03/24 03:24:06;;;;;;;;;;;6.30;99.90;;;;;;5115654;28;20010;-88
2022/03/24 03:26:34;;;;;;;;;;;7.70;99.90;;;;;;5115908;28;19984;-88
2022/03/24 03:29:02;;;;;;;;;;;7.10;99.90;;;;;;5110262;28;20404;-88
2022/03/24 03:31:29;;;;;;;;;;;7.10;99.90;;;;;;5095351;28;19969;-89
2022/03/24 03:33:56;;;;;;;;;;;7.70;99.90;;;;;;5095489;28;20011;-87
2022/03/24 03:36:24;;;;;;;;;;;7.10;99.90;;;;;;5098673;28;19950;-86
2022/03/24 03:38:50;;;;;;;;;;;8.20;99.90;;;;;;5112241;28;20022;-87
2022/03/24 03:41:20;;;;;;;;;;;7.20;99.90;;;;;;5111947;28;19973;-87
2022/03/24 03:43:47;;;;;;;;;;;7.20;99.90;;;;;;5113491;28;19924;-86
2022/03/24 03:46:18;;;;;;;;;;;7.90;99.90;;;;;;5100777;28;19924;-88
2022/03/24 03:48:45;;;;;;;;;;;7.20;99.90;;;;;;5111359;28;19931;-88
2022/03/24 03:51:12;;;;;;;;;;;7.20;99.90;;;;;;5115323;28;19980;-88
2022/03/24 03:53:40;;;;;;;;;;;7.60;99.90;;;;;;5114971;28;19931;-88
2022/03/24 03:56:08;;;;;;;;;;;7.10;99.90;;;;;;5114565;28;19928;-88
2022/03/24 03:58:35;;;;;;;;;;;7.10;99.90;;;;;;5115118;28;20374;-88
2022/03/24 04:01:02;;;;;;;;;;;6.70;99.90;;;;;;5101728;28;20284;-88
2022/03/24 04:03:33;;;;;;;;;;;7.10;99.90;;;;;;5094475;28;20450;-88
2022/03/24 04:06:00;;;;;;;;;;;7.00;99.90;;;;;;5094444;28;19935;-89
2022/03/24 04:08:28;;;;;;;;;;;7.10;99.90;;;;;;5094320;28;19964;-88
2022/03/24 04:10:56;;;;;;;;;;;7.00;99.90;;;;;;5104553;28;19973;-87
2022/03/24 04:13:23;;;;;;;;;;;6.90;99.90;;;;;;5114734;28;19928;-87
2022/03/24 04:15:50;;;;;;;;;;;7.10;99.90;;;;;;5114466;28;19924;-88
2022/03/24 04:18:18;;;;;;;;;;;6.80;99.90;;;;;;5114897;28;19928;-88
2022/03/24 04:20:46;;;;;;;;;;;7.10;99.90;;;;;;5114242;28;19924;-87
2022/03/24 04:23:13;;;;;;;;;;;6.80;99.90;;;;;;5114664;28;20010;-88
2022/03/24 04:25:40;;;;;;;;;;;7.00;99.90;;;;;;5114323;28;19930;-88
2022/03/24 04:28:09;;;;;;;;;;;6.70;99.90;;;;;;5114723;28;19924;-88
2022/03/24 04:30:39;;;;;;;;;;;7.00;99.90;;;;;;5109686;28;19923;-89
2022/03/24 04:33:06;;;;;;;;;;;7.10;99.90;;;;;;5113927;28;19948;-87
2022/03/24 04:35:33;;;;;;;;;;;6.90;99.90;;;;;;5114055;28;19930;-88
2022/03/24 04:38:02;;;;;;;;;;;6.40;99.90;;;;;;5114512;28;19973;-87
2022/03/24 04:40:29;;;;;;;;;;;5.70;99.90;;;;;;5113736;28;19928;-88
2022/03/24 04:42:56;;;;;;;;;;;6.80;99.90;;;;;;5094125;28;19924;-88
2022/03/24 04:45:23;;;;;;;;;;;6.50;99.90;;;;;;5093631;28;20394;-88
2022/03/24 04:47:50;;;;;;;;;;;6.90;99.90;;;;;;5094126;28;19998;-88
2022/03/24 04:50:18;;;;;;;;;;;6.50;99.90;;;;;;5094098;28;19982;-88
2022/03/24 04:52:45;;;;;;;;;;;3.60;99.90;;;;;;5112963;28;19955;-88
2022/03/24 04:55:14;;;;;;;;;;;6.40;99.90;;;;;;5114272;28;19927;-88
2022/03/24 04:57:41;;;;;;;;;;;6.60;99.90;;;;;;5114265;28;19939;-88
2022/03/24 05:00:09;;;;;;;;;;;6.60;99.90;;;;;;5109736;28;19924;-89
2022/03/24 05:02:36;;;;;;;;;;;6.40;99.90;;;;;;5093490;28;20332;-88
2022/03/24 05:05:03;;;;;;;;;;;6.20;99.90;;;;;;5099795;28;19928;-88
2022/03/24 05:07:30;;;;;;;;;;;6.10;99.90;;;;;;5112824;28;20510;-89
2022/03/24 05:09:57;;;;;;;;;;;6.40;99.90;;;;;;5113905;28;19928;-88
2022/03/24 05:12:25;;;;;;;;;;;6.10;99.90;;;;;;5113684;28;19924;-88
2022/03/24 05:14:52;;;;;;;;;;;5.10;99.90;;;;;;5113646;28;19932;-89
2022/03/24 05:17:18;;;;;;;;;;;6.10;99.90;;;;;;5095430;28;19924;-89
2022/03/24 05:19:48;;;;;;;;;;;6.10;99.90;;;;;;5093772;28;19977;-88
2022/03/24 05:22:14;;;;;;;;;;;6.00;99.90;;;;;;5096513;28;19930;-88
2022/03/24 05:24:42;;;;;;;;;;;6.50;99.90;;;;;;5097471;28;19932;-87
2022/03/24 05:27:09;;;;;;;;;;;6.40;99.90;;;;;;5098046;28;20357;-88
2022/03/24 05:29:38;;;;;;;;;;;6.40;99.90;;;;;;5114414;28;19923;-88
2022/03/24 05:32:05;;;;;;;;;;;6.20;99.90;;;;;;5117859;28;19967;-87
2022/03/24 05:34:36;;;;;;;;;;;6.20;99.90;;;;;;5108052;28;19978;-87
2022/03/24 05:37:03;;;;;;;;;;;8.90;99.90;;;;;;5108714;28;20287;-86
2022/03/24 05:39:29;;;;;;;;;;;6.30;99.90;;;;;;5118119;28;20296;-88
2022/03/24 05:41:57;;;;;;;;;;;6.30;99.90;;;;;;5123707;28;19980;-87
2022/03/24 05:44:24;;;;;;;;;;;6.30;99.90;;;;;;5134163;28;19930;-88
2022/03/24 05:46:52;;;;;;;;;;;6.20;99.90;;;;;;5115741;28;19924;-86
2022/03/24 05:49:19;;;;;;;;;;;6.20;99.90;;;;;;5115496;28;19989;-88
2022/03/24 05:51:47;;;;;;;;;;;6.70;99.90;;;;;;5101781;28;19925;-88
2022/03/24 05:54:14;;;;;;;;;;;6.50;99.90;;;;;;5097866;28;20012;-88
2022/03/24 05:56:41;;;;;;;;;;;6.00;99.90;;;;;;5114277;28;19984;-87
2022/03/24 05:59:08;;;;;;;;;;;6.00;99.90;;;;;;5117612;28;19927;-89
2022/03/24 06:01:35;;;;;;;;;;;5.70;99.90;;;;;;5117112;28;20374;-89
2022/03/24 06:04:04;;;;;;;;;;;6.10;99.90;;;;;;5117004;28;19931;-86
2022/03/24 06:06:34;;;;;;;;;;;5.90;99.90;;;;;;5117265;28;19924;-87
2022/03/24 06:09:03;;;;;;;;;;;5.90;99.90;;;;;;5097549;28;20023;-88
2022/03/24 06:11:31;;;;;;;;;;;5.90;99.90;;;;;;5096480;28;19924;-88
2022/03/24 06:13:58;;;;;;;;;;;4.70;99.90;;;;;;5096909;28;20007;-88
2022/03/24 06:16:25;;;;;;;;;;;5.40;99.90;;;;;;5096186;28;19932;-88
2022/03/24 06:18:52;;;;;;;;;;;5.80;99.90;;;;;;5097929;28;19931;-88
2022/03/24 06:21:20;;;;;;;;;;;6.10;99.90;;;;;;5117487;28;20391;-87
2022/03/24 06:23:47;;;;;;;;;;;6.10;99.90;;;;;;5117137;28;19923;-88
2022/03/24 06:26:14;;;;;;;;;;;5.90;99.90;;;;;;5116560;28;19924;-88
2022/03/24 06:28:41;;;;;;;;;;;6.20;99.90;;;;;;5117089;28;19927;-88
2022/03/24 06:31:08;;;;;;;;;;;6.60;99.90;;;;;;5097456;28;19924;-88
2022/03/24 06:33:35;;;;;;;;;;;5.90;99.90;;;;;;5096258;28;19928;-88
2022/03/24 06:36:02;;;;;;;;;;;5.70;99.90;;;;;;5095969;28;19932;-87
2022/03/24 06:38:30;;;;;;;;;;;6.30;99.90;;;;;;5101985;28;19947;-88
2022/03/24 06:40:57;;;;;;;;;;;5.80;99.90;;;;;;5116449;28;19976;-88
2022/03/24 06:43:24;;;;;;;;;;;5.90;99.90;;;;;;5116499;28;19985;-88
2022/03/24 06:45:51;;;;;;;;;;;6.00;99.90;;;;;;5116535;28;19924;-88
2022/03/24 06:48:18;;;;;;;;;;;6.50;99.90;;;;;;5112662;28;19977;-88
2022/03/24 06:50:45;;;;;;;;;;;6.00;99.90;;;;;;5095616;28;20011;-87
2022/03/24 06:53:12;;;;;;;;;;;6.40;99.90;;;;;;5095774;28;20358;-87
2022/03/24 06:55:40;;;;;;;;;;;6.60;99.90;;;;;;5095808;28;19924;-88
2022/03/24 06:58:09;;;;;;;;;;;6.20;99.90;;;;;;5095473;28;19985;-87
2022/03/24 07:00:36;;;;;;;;;;;6.60;99.90;;;;;;5115102;28;19931;-88
2022/03/24 07:03:03;;;;;;;;;;;6.30;99.90;;;;;;5116135;28;19935;-87
2022/03/24 07:05:31;;;;;;;;;;;6.20;99.90;;;;;;5115808;28;19931;-88
2022/03/24 07:07:57;;;;;;;;;;;6.40;99.90;;;;;;5111728;28;20370;-88
2022/03/24 07:10:24;;;;;;;;;;;6.50;99.90;;;;;;5112471;28;19981;-87
2022/03/24 07:12:53;;;;;;;;;;;6.60;99.90;;;;;;5115804;28;19923;-88
2022/03/24 07:15:26;;;;;;;;;;;6.70;99.90;;;;;;5115435;28;20379;-88
2022/03/24 07:17:53;;;;;;;;;;;6.70;99.90;;;;;;5115321;28;19946;-89
2022/03/24 07:20:20;;;;;;;;;;;8.00;99.90;;;;;;5114215;28;19924;-88
2022/03/24 07:22:47;;;;;;;;;;;6.90;99.90;;;;;;5094736;28;20263;-87
2022/03/24 07:25:15;;;;;;;;;;;8.30;99.90;;;;;;5094786;28;19976;-88
2022/03/24 07:27:43;;;;;;;;;;;7.10;99.90;;;;;;5109995;28;19924;-89
2022/03/24 07:30:12;;;;;;;;;;;7.20;99.90;;;;;;5115067;28;19928;-89
2022/03/24 07:32:40;;;;;;;;;;;7.30;99.90;;;;;;5115511;28;19945;-88
2022/03/24 07:35:08;;;;;;;;;;;8.00;99.90;;;;;;5115530;28;19930;-88
2022/03/24 07:37:36;;;;;;;;;;;7.40;99.90;;;;;;5102616;28;19985;-89
2022/03/24 07:40:03;;;;;;;;;;;7.60;99.90;;;;;;5096432;28;19928;-88
2022/03/24 07:42:30;;;;;;;;;;;7.50;99.90;;;;;;5098569;28;19928;-88
2022/03/24 07:44:59;;;;;;;;;;;7.80;99.90;;;;;;5107657;28;19932;-89
2022/03/24 07:47:29;;;;;;;;;;;8.20;99.90;;;;;;5100711;28;19930;-88
2022/03/24 07:49:56;;;;;;;;;;;8.30;99.90;;;;;;5122470;28;19924;-89
2022/03/24 07:52:26;;;;;;;;;;;8.50;99.90;;;;;;5106358;28;19928;-87
2022/03/24 07:54:58;;;;;;;;;;;8.30;99.90;;;;;;5103879;28;19924;-88
2022/03/24 07:57:26;;;;;;;;;;;6.40;99.90;;;;;;5111587;28;19980;-89
2022/03/24 07:59:53;;;;;;;;;;;8.50;99.90;;;;;;5101459;28;19946;-88
2022/03/24 08:02:20;;;;;;;;;;;6.90;99.90;;;;;;5096401;28;19946;-87
2022/03/24 08:04:49;;;;;;;;;;;8.70;99.90;;;;;;5110753;28;19966;-88
2022/03/24 08:07:17;;;;;;;;;;;8.60;99.90;;;;;;5106901;28;20278;-89
2022/03/24 08:09:44;;;;;;;;;;;9.30;99.90;;;;;;5096747;28;19923;-88
2022/03/24 08:12:11;;;;;;;;;;;8.80;99.90;;;;;;5115377;28;19924;-89
2022/03/24 08:14:38;;;;;;;;;;;9.10;99.90;;;;;;5103410;28;19924;-89
2022/03/24 08:17:08;;;;;;;;;;;7.30;99.90;;;;;;5109226;28;19928;-87
2022/03/24 08:19:42;;;;;;;;;;;9.70;99.90;;;;;;5111812;28;19924;-88
2022/03/24 08:22:17;;;;;;;;;;;9.30;99.90;;;;;;5114111;28;19924;-88
2022/03/24 08:24:44;;;;;;;;;;;12.60;99.90;;;;;;5113928;28;19928;-89
2022/03/24 08:27:14;;;;;;;;;;;10.00;99.90;;;;;;5115662;28;19964;-88
2022/03/24 08:29:41;;;;;;;;;;;10.50;99.90;;;;;;5116649;28;19924;-88
2022/03/24 08:32:23;;;;;;;;;;;9.70;99.90;;;;;;5102052;28;19924;-88
2022/03/24 08:34:50;;;;;;;;;;;10.10;99.90;;;;;;5104604;28;19923;-88
2022/03/24 08:37:28;;;;;;;;;;;;;;;;;;;;;
2022/03/24 08:39:55;;;;;;;;;;;10.00;99.90;;;;;;5104921;28;19928;-88
2022/03/24 08:42:25;;;;;;;;;;;9.30;99.90;;;;;;5112186;28;19931;-87
2022/03/24 08:44:56;;;;;;;;;;;11.60;99.90;;;;;;5101003;28;19928;-88
2022/03/24 08:47:25;;;;;;;;;;;10.80;99.90;;;;;;5102657;28;20439;-88
2022/03/24 08:49:52;;;;;;;;;;;12.30;99.90;;;;;;5095848;28;19928;-85
2022/03/24 08:52:25;;;;;;;;;;;10.60;99.90;;;;;;5111371;28;19923;-89
2022/03/24 08:54:52;;;;;;;;;;;10.90;99.90;;;;;;5111136;28;19971;-86
2022/03/24 08:57:25;;;;;;;;;;;10.70;99.90;;;;;;5094007;28;19961;-86
2022/03/24 08:59:52;;;;;;;;;;;11.80;99.90;;;;;;5087694;28;19939;-88
2022/03/24 09:02:20;;;;;;;;;;;11.10;99.90;;;;;;5112714;28;20002;-85
2022/03/24 09:04:50;;;;;;;;;;;11.10;99.90;;;;;;5107572;28;19939;-87
2022/03/24 09:07:28;;;;;;;;;;;10.70;99.90;;;;;;5104535;28;19946;-88
2022/03/24 09:09:56;;;;;;;;;;;11.10;99.90;;;;;;5085085;28;19928;-88
2022/03/24 09:12:24;;;;;;;;;;;11.30;99.90;;;;;;5104764;28;19928;-87
2022/03/24 09:14:53;;;;;;;;;;;9.70;99.90;;;;;;5099097;28;20373;-87
2022/03/24 09:17:20;;;;;;;;;;;11.20;99.90;;;;;;5110729;28;20457;-87
2022/03/24 09:19:50;;;;;;;;;;;11.30;99.90;;;;;;5096807;28;19936;-88
2022/03/24 09:22:24;;;;;;;;;;;11.60;99.90;;;;;;5082080;28;19932;-88
2022/03/24 09:24:51;;;;;;;;;;;12.00;99.90;;;;;;5097233;28;19932;-84
2022/03/24 09:27:19;;;;;;;;;;;12.00;99.90;;;;;;5101824;28;19931;-85
2022/03/24 09:29:49;;;;;;;;;;;11.70;99.90;;;;;;5102540;28;19924;-90
2022/03/24 09:32:25;;;;;;;;;;;12.00;99.90;;;;;;5098872;28;19997;-87
2022/03/24 09:34:57;;;;;;;;;;;11.80;99.90;;;;;;5092538;28;19924;-87
2022/03/24 09:37:23;;;;;;;;;;;12.10;99.90;;;;;;5104080;28;19927;-88
2022/03/24 09:39:53;;;;;;;;;;;11.80;99.90;;;;;;5098518;28;20230;-88
2022/03/24 09:42:22;;;;;;;;;;;12.10;99.90;;;;;;5105179;28;20007;-90
2022/03/24 09:44:49;;;;;;;;;;;12.60;99.90;;;;;;5112069;28;19928;-88
2022/03/24 09:47:16;;;;;;;;;;;12.30;99.90;;;;;;5113807;28;19930;-86
2022/03/24 09:49:44;;;;;;;;;;;12.30;99.90;;;;;;5101857;28;19953;-89
2022/03/24 09:52:14;;;;;;;;;;;13.20;99.90;;;;;;5100698;28;20366;-89
2022/03/24 09:54:43;;;;;;;;;;;12.90;99.90;;;;;;5086636;28;19946;-86
2022/03/24 09:57:10;;;;;;;;;;;13.20;99.90;;;;;;5111308;28;19939;-86
2022/03/24 09:59:39;;;;;;;;;;;12.80;99.90;;;;;;5117771;28;19939;-86
2022/03/24 10:02:07;;;;;;;;;;;13.20;99.90;;;;;;5120132;28;19995;-86
2022/03/24 10:04:46;;;;;;;;;;;13.40;99.90;;;;;;5116017;28;19924;-88
2022/03/24 10:07:13;;;;;;;;;;;13.40;99.90;;;;;;5109591;28;20423;-87
2022/03/24 10:09:43;;;;;;;;;;;14.30;99.90;;;;;;5112455;28;19939;-89
2022/03/24 10:12:20;;;;;;;;;;;13.10;99.90;;;;;;5091697;28;19930;-88
2022/03/24 10:14:57;;;;;;;;;;;15.80;99.90;;;;;;5075335;28;19972;-88
2022/03/24 10:17:24;;;;;;;;;;;13.40;99.90;;;;;;5103633;28;19928;-87
2022/03/24 10:20:00;;;;;;;;;;;13.90;99.90;;;;;;5112122;28;20420;-87
2022/03/24 10:22:28;;;;;;;;;;;13.60;99.90;;;;;;5107558;28;19932;-89
2022/03/24 10:24:54;;;;;;;;;;;15.00;99.90;;;;;;5096385;28;19935;-88
2022/03/24 10:27:29;;;;;;;;;;;14.60;99.90;;;;;;5098324;28;19927;-88
2022/03/24 10:30:11;;;;;;;;;;;14.50;99.90;;;;;;5110734;28;20378;-89
2022/03/24 10:35:36;;;;;;;;;;;13.60;99.90;;;;;;5097673;28;19924;-83
2022/03/24 10:38:04;;;;;;;;;;;14.10;99.90;;;;;;5111510;28;19931;-85
2022/03/24 10:40:36;;;;;;;;;;;14.10;99.90;;;;;;5103168;28;19963;-84
2022/03/24 10:43:25;;;;;;;;;;;14.10;99.90;;;;;;5118246;28;20333;-88
2022/03/24 10:45:57;;;;;;;;;;;14.40;99.90;;;;;;5114845;28;19955;-88
2022/03/24 10:48:25;;;;;;;;;;;14.30;99.90;;;;;;5109317;28;19928;-90
2022/03/24 10:51:00;;;;;;;;;;;15.30;99.90;;;;;;5089817;28;19954;-91
2022/03/24 10:53:38;;;;;;;;;;;14.50;99.90;;;;;;5116281;28;19940;-89
2022/03/24 10:56:08;;;;;;;;;;;14.90;99.90;;;;;;5116317;28;19979;-88
2022/03/24 10:58:42;;;;;;;;;;;14.90;99.90;;;;;;5093157;28;19924;-88
2022/03/24 11:01:16;;;;;;;;;;;15.40;99.90;;;;;;5073422;28;20734;-88
2022/03/24 11:03:49;;;;;;;;;;;14.90;99.90;;;;;;5101208;28;20397;-88
2022/03/24 11:06:18;;;;;;;;;;;15.00;99.90;;;;;;5117986;28;19971;-88
2022/03/24 11:08:45;;;;;;;;;;;13.60;99.90;;;;;;5118127;28;20011;-89
2022/03/24 11:11:16;;;;;;;;;;;14.80;99.90;;;;;;5106297;28;19969;-88
2022/03/24 11:13:48;;;;;;;;;;;15.10;99.90;;;;;;5113923;28;20362;-87
2022/03/24 11:16:20;;;;;;;;;;;15.20;99.90;;;;;;5112052;28;19927;-88
2022/03/24 11:18:49;;;;;;;;;;;15.70;99.90;;;;;;5099906;28;19949;-90
2022/03/24 11:21:18;;;;;;;;;;;15.50;99.90;;;;;;5107013;28;20023;-87
2022/03/24 11:23:46;;;;;;;;;;;15.70;99.60;;;;;;5110462;28;19931;-88
2022/03/24 11:26:14;;;;;;;;;;;17.00;99.90;;;;;;5113664;28;19928;-86
2022/03/24 11:28:45;;;;;;;;;;;15.80;99.80;;;;;;5108418;28;20285;-86
2022/03/24 11:31:23;;;;;;;;;;;;;;;;;;;;;
2022/03/24 11:33:52;;;;;;;;;;;15.80;99.90;;;;;;5105858;28;19930;-85
2022/03/24 11:36:21;;;;;;;;;;;15.80;99.10;;;;;;5109935;28;20031;-85
2022/03/24 11:38:48;;;;;;;;;;;16.00;99.90;;;;;;5111900;27;19977;-87
2022/03/24 11:41:27;;;;;;;;;;;15.40;98.40;;;;;;5112122;28;20018;-87
2022/03/24 11:43:56;;;;;;;;;;;16.30;97.80;;;;;;5112007;28;19923;-87
2022/03/24 11:46:30;;;;;;;;;;;16.20;97.10;;;;;;5101540;28;19959;-86
2022/03/24 11:49:16;;;;;;;;;;;16.50;96.20;;;;;;5113689;28;19924;-87
2022/03/24 11:51:44;;;;;;;;;;;16.60;95.80;;;;;;5099278;28;20386;-88
2022/03/24 11:54:10;;;;;;;;;;;19.20;97.20;;;;;;5094517;28;19928;-87
2022/03/24 11:56:37;;;;;;;;;;;16.40;97.10;;;;;;5099886;28;19923;-87
2022/03/24 11:59:19;;;;;;;;;;;16.60;95.70;;;;;;5083418;27;19928;-89
2022/03/24 12:01:46;;;;;;;;;;;17.70;94.60;;;;;;5024439;28;20024;-87
2022/03/24 12:04:17;;;;;;;;;;;16.90;94.40;;;;;;5069616;28;20403;-86
2022/03/24 12:06:52;;;;;;;;;;;17.40;94.30;;;;;;5114103;28;20019;-88
2022/03/24 12:09:28;;;;;;;;;;;17.60;93.60;;;;;;5100220;28;20122;-88
2022/03/24 12:12:09;;;;;;;;;;;17.70;93.80;;;;;;5049299;28;20700;-88
2022/03/24 12:14:39;;;;;;;;;;;17.20;92.60;;;;;;5106452;28;19928;-87
2022/03/24 12:17:15;;;;;;;;;;;18.00;91.90;;;;;;5107681;28;19928;-88
2022/03/24 12:19:47;;;;;;;;;;;17.50;91.80;;;;;;5112645;28;20398;-88
2022/03/24 12:22:31;;;;;;;;;;;17.70;90.90;;;;;;5098820;28;20495;-88
2022/03/24 12:25:35;;;;;;;;;;;16.30;90.60;;;;;;5102462;28;20012;-86
2022/03/24 12:28:04;;;;;;;;;;;17.40;90.30;;;;;;5098043;28;20022;-87
2022/03/24 12:30:51;;;;;;;;;;;17.40;89.80;;;;;;5109304;28;19923;-88
2022/03/24 12:33:18;;;;;;;;;;;17.40;86.90;;;;;;5081778;28;20023;-87
2022/03/24 12:35:48;;;;;;;;;;;17.70;88.00;;;;;;5100770;28;19936;-87
2022/03/24 12:38:22;;;;;;;;;;;15.50;85.40;;;;;;5113048;28;19924;-88
2022/03/24 12:41:10;;;;;;;;;;;17.50;81.20;;;;;;5106269;28;20373;-88
2022/03/24 12:43:39;;;;;;;;;;;18.10;82.20;;;;;;5114773;28;20112;-89
2022/03/24 12:46:28;;;;;;;;;;;17.50;84.10;;;;;;5110078;28;19934;-88
2022/03/24 12:49:00;;;;;;;;;;;17.50;83.70;;;;;;5100739;28;20031;-88
2022/03/24 12:51:31;;;;;;;;;;;17.40;84.70;;;;;;5104224;28;19998;-89
2022/03/24 12:54:03;;;;;;;;;;;17.50;82.80;;;;;;5095915;28;19924;-88
2022/03/24 12:56:37;;;;;;;;;;;15.40;79.40;;;;;;5102860;28;19931;-87
2022/03/24 12:59:06;;;;;;;;;;;17.50;82.00;;;;;;5105805;28;19940;-85
2022/03/24 13:01:33;;;;;;;;;;;17.60;81.90;;;;;;5117692;28;19924;-84
2022/03/24 13:04:09;;;;;;;;;;;17.70;80.10;;;;;;5119603;28;19988;-87
2022/03/24 13:06:37;;;;;;;;;;;20.40;81.50;;;;;;5116355;28;19923;-87
2022/03/24 13:09:24;;;;;;;;;;;17.10;79.20;;;;;;5109602;28;19928;-87
2022/03/24 13:11:54;;;;;;;;;;;17.50;79.10;;;;;;5108733;28;19971;-89
2022/03/24 13:14:24;;;;;;;;;;;17.00;75.30;;;;;;5113607;28;19938;-87
2022/03/24 13:17:08;;;;;;;;;;;17.60;78.00;;;;;;5113321;28;19927;-89
2022/03/24 13:19:36;;;;;;;;;;;15.80;79.00;;;;;;5110518;28;20289;-88
2022/03/24 13:22:39;;;;;;;;;;;;;;;;;;;;;
2022/03/24 13:25:10;;;;;;;;;;;18.30;77.90;;;;;;5087342;28;19935;-89
2022/03/24 13:27:39;;;;;;;;;;;17.90;78.80;;;;;;5096571;28;20031;-90
2022/03/24 13:30:07;;;;;;;;;;;17.70;78.20;;;;;;5106515;28;19967;-92
2022/03/24 13:32:34;;;;;;;;;;;18.30;81.80;;;;;;5094023;28;19928;-89
2022/03/24 13:35:07;;;;;;;;;;;15.80;80.10;;;;;;5093977;28;20029;-89
2022/03/24 13:37:35;;;;;;;;;;;16.00;75.50;;;;;;5098818;28;19974;-87
2022/03/24 13:40:04;;;;;;;;;;;18.00;75.10;;;;;;5106603;28;19932;-90
2022/03/24 13:45:15;;;;;;;;;;;18.30;75.50;;;;;;5109191;28;19923;-89
2022/03/24 13:47:46;;;;;;;;;;;18.20;78.90;;;;;;5117684;28;19992;-91
2022/03/24 13:50:17;;;;;;;;;;;18.40;76.60;;;;;;5110332;28;20388;-90
2022/03/24 13:52:45;;;;;;;;;;;18.40;75.60;;;;;;5114446;28;20370;-89
2022/03/24 13:55:14;;;;;;;;;;;18.10;78.20;;;;;;5097388;28;19924;-89
2022/03/24 13:57:55;;;;;;;;;;;18.00;75.50;;;;;;5106188;28;19924;-87
2022/03/24 14:00:30;;;;;;;;;;;18.20;73.90;;;;;;5107507;28;19932;-89
2022/03/24 14:03:02;;;;;;;;;;;18.20;74.90;;;;;;5110743;28;19937;-87
2022/03/24 14:05:55;;;;;;;;;;;18.10;74.10;;;;;;5110711;28;19928;-90
2022/03/24 14:08:32;;;;;;;;;;;18.10;73.10;;;;;;5098037;28;20001;-89
2022/03/24 14:11:04;;;;;;;;;;;18.50;73.90;;;;;;5100007;28;19931;-87
2022/03/24 14:13:34;;;;;;;;;;;18.10;73.90;;;;;;5117527;28;20294;-89
2022/03/24 14:16:08;;;;;;;;;;;18.00;74.30;;;;;;5105353;28;19974;-89
2022/03/24 14:18:37;;;;;;;;;;;18.50;74.90;;;;;;5112749;28;19923;-90
2022/03/24 14:21:04;;;;;;;;;;;18.20;75.80;;;;;;5111449;28;19924;-88
2022/03/24 14:23:35;;;;;;;;;;;18.20;75.90;;;;;;5102775;28;20282;-89
2022/03/24 14:26:03;;;;;;;;;;;18.20;75.00;;;;;;5106930;28;20381;-89
2022/03/24 14:28:35;;;;;;;;;;;18.40;74.40;;;;;;5097231;28;19983;-89
2022/03/24 14:31:29;;;;;;;;;;;18.20;73.10;;;;;;5113596;28;19969;-88
2022/03/24 14:33:59;;;;;;;;;;;18.10;72.90;;;;;;5115534;28;20019;-89
2022/03/24 14:36:26;;;;;;;;;;;18.20;73.00;;;;;;5097829;28;20027;-89
2022/03/24 14:39:12;;;;;;;;;;;18.20;74.30;;;;;;5096431;28;19924;-89
2022/03/24 14:41:39;;;;;;;;;;;18.20;73.00;;;;;;5097149;28;19924;-90
2022/03/24 14:44:08;;;;;;;;;;;18.20;72.10;;;;;;5098325;28;20301;-90
2022/03/24 14:46:38;;;;;;;;;;;19.40;73.70;;;;;;5104133;28;19928;-89
2022/03/24 14:49:05;;;;;;;;;;;18.10;75.50;;;;;;5101845;28;20075;-89